Pagrindinis puslapis
METAR-TAF:

METAR-TAF

Oro uostai :

Sandakan, Malaizija

platuma: 05-54N, ilguma: 118-04E, Aukštis: 12 m

Dabartinis oras

Ataskaita buvo paskelbta 1 valandą ir 11 minutes, ne 04:00 UTC
Vėjas 8 kt iš Šiaurės Rytų, svyruoja nuo Šiaurės ir Rytų
Temperatūra 30°C
Drėgmė 75%
Slėgis 1012 hPa
Matomumas: 9000 m
Išsisklaidę debesys ne aukštis 1500 ft

METAR: WBKS 020400Z 04008KT 350V080 9000 SCT015 30/25 Q1012

Laikas: 13:11 (05:11 UTC)

Prognozė

Ataskaita buvo paskelbta 6 valandos ir 11 minutes, ne 23:00 UTC
Prognozė galioja nuo 02 metu 00 UTC su 03 metu 00 UTC
Vėjas 5 kt iš Vakarų/Pietvakarių
Matomumas 10 km arba daugiau
Mažai debesys ne aukštis 1600 ft
Tikimybė 30% :
Laikinai
nuo 02 metu 06 UTC su 02 metu 10 UTC
Vėjas 10 kt iš Šiaurės
Matomumas: 5000 m
Mažai debesys ne aukštis 1000 ft
Mažai debesys ne aukštis 1600 ft, Liūtiniai kamuoliniai debesys.
Išsisklaidę debesys ne aukštis 4000 ft
perkūnija, lietus

TAF: WBKS 012300Z 0200/0300 24005KT 9999 FEW016 PROB30 TEMPO 0206/0210 01010KT 5000 TSRA FEW010 FEW016CB SCT040

Orai ataskaitas ir orų prognozės (METAR, TAF).

turimą stotys yra geltonos ir raudonos taškus žemėlapyje.

Perkelti pele per norėdami pamatyti stoties vardą.

Tada spustelėkite, norėdami matyti oro stebėjimo ir prognozės.

Norėdami pakeisti žemėlapį: spustelėkite ant žalios mygtukų su juodo kryžiaus žemyn,; žalią mygtuką su brūkšneliu, jei norite nutolinti; arba žalių rodyklių gretimoms žemėlapius.


METAR-TAF: